Nearby METAR Reports

 

EGNV - Tees-Side, United Kingdom
Distance from station: W 8mi, 13km
Updated: 15/09/2019 16:50
Clear
Clear
 Wind from S
Wind: S 8 mph , 13 km/h
Temperature: 13°C
Dew Point: 9°C
Humidity: 77%
Barometer: 1022 hPa
Summary: Clear
Visibility: greater than 7 miles , 10 km
2019/09/15 15:50 EGNV 151550Z 19007KT CAVOK 13/09 Q1022
EGXE - Leeming Raf, United Kingdom
Distance from station: SW 21mi, 34km
Updated: 15/09/2019 15:50
Light rain, Overcast
Light rain, Overcast
 Wind from ESE
Wind: ESE 5 mph , 7 km/h
Temperature: 14°C
Dew Point: 8°C
Humidity: 67%
Barometer: 1023 hPa
Summary: Light rain
Clouds: Overcast
Visibility: 6 miles , 10 km
Cloud details: Overcast 1524 m
2019/09/15 14:50 EGXE 151450Z AUTO 11004KT 9999 -RA OVC050/// 14/08 Q1023
 
EGXZ - Topcliffe Raf, United Kingdom
Distance from station: SSW 24mi, 38km
Updated: 15/09/2019 15:50
Overcast
Overcast
 Wind from NNE
Wind: NNE 7 mph , 11 km/h
Temperature: 13°C
Dew Point: 9°C
Humidity: 77%
Barometer: 1023 hPa
Clouds: Overcast
Visibility: 6 miles , 10 km
Cloud details: Mostly cloudy 1524 m
Overcast 3658 m
2019/09/15 14:50 EGXZ 151450Z AUTO 03006KT 9999 BKN050/// OVC120/// 13/09 Q1023 RERA
EGXD - Dishforth Raf, United Kingdom
Distance from station: SSW 29mi, 46km
Updated: 06/06/2016 10:50
NOT Current
Clear
Clear
 Wind from SSE
Wind: SSE 5 mph , 7 km/h
Temperature: 18°C
Dew Point: 11°C
Humidity: 64%
Barometer: 1023 hPa
Clouds: Clear
Visibility: 6 miles , 10 km
2016/06/06 09:50 EGXD 060950Z AUTO 16004KT 9999 // NCD 18/11 Q1023
 
EGXU - Linton-On-Ouse R, United Kingdom
Distance from station: S 33mi, 53km
Updated: 15/09/2019 15:50
Overcast
Overcast
 Wind from N
Wind: N 6 mph , 9 km/h
Temperature: 15°C
Dew Point: 7°C
Humidity: 59%
Barometer: 1023 hPa
Clouds: Overcast
Visibility: 6 miles , 10 km
Cloud details: Overcast 1524 m
2019/09/15 14:50 EGXU 151450Z AUTO 36005KT 9999 // OVC050/// 15/07 Q1023
EGNT - Newcastle, United Kingdom
Distance from station: NNW 39mi, 63km
Updated: 15/09/2019 16:50
Few Clouds
Few Clouds
 Wind from W
Wind: W 12 mph , 19 km/h
Temperature: 13°C
Dew Point: 8°C
Humidity: 72%
Barometer: 1022 hPa
Clouds: Few Clouds
Visibility: 6 miles , 10 km
Cloud details: Few Clouds 1219 m
2019/09/15 15:50 EGNT 151550Z 27010KT 9999 FEW040 13/08 Q1022
 
EGNM - Leeds And Bradfo, United Kingdom
Distance from station: SSW 49mi, 79km
Updated: 15/09/2019 16:50
Mostly cloudy
Mostly cloudy
 Wind from W
Wind: W 9 mph , 15 km/h
Temperature: 14°C
Dew Point: 9°C
Humidity: 72%
Barometer: 1023 hPa
Clouds: Mostly cloudy
Visibility: 6 miles , 10 km
Cloud details: Mostly cloudy 1067 m
2019/09/15 15:50 EGNM 151550Z 28008KT 9999 BKN035 14/09 Q1023